Time;durP1;ratioP1;P1;durP2;ratioP2;P2;SDS_P1;SDS_P2;PMS_P1;PMS_P2;Temp;Humidity;BMP_temperature;BMP_pressure;BME280_temperature;BME280_humidity;BME280_pressure;Samples;Min_cycle;Max_cycle;Signal;HPM_P1;HPM_P2
2023/04/25 04:28:31;;;;;;;10.87;10.57;;;7.70;99.90;;;;;;4878400;22;20239;-79
2023/04/25 04:30:58;;;;;;;10.70;10.40;;;7.70;99.90;;;;;;5062584;28;20238;-79
2023/04/25 04:33:26;;;;;;;11.00;10.70;;;7.70;99.90;;;;;;5061419;28;20389;-79
2023/04/25 04:35:55;;;;;;;10.50;10.20;;;7.70;99.90;;;;;;5060261;28;20318;-79
2023/04/25 04:38:22;;;;;;;10.50;10.20;;;7.70;99.90;;;;;;5060949;28;20242;-80
2023/04/25 04:40:50;;;;;;;10.40;10.10;;;7.70;99.90;;;;;;5048996;28;20319;-79
2023/04/25 04:43:18;;;;;;;10.40;10.10;;;7.70;99.90;;;;;;5055754;28;20253;-79
2023/04/25 04:45:47;;;;;;;10.50;10.20;;;7.80;99.90;;;;;;5060974;28;20226;-79
2023/04/25 04:48:15;;;;;;;10.57;10.27;;;7.80;99.90;;;;;;5059901;28;20249;-79
2023/04/25 04:50:44;;;;;;;10.60;10.30;;;7.80;99.90;;;;;;5061726;28;20234;-80
2023/04/25 04:53:12;;;;;;;10.60;10.30;;;7.80;99.90;;;;;;5060049;28;20227;-79
2023/04/25 04:55:40;;;;;;;10.83;10.53;;;7.80;99.90;;;;;;5040500;28;20227;-80
2023/04/25 04:58:08;;;;;;;10.60;10.30;;;7.80;99.90;;;;;;5039082;28;20309;-79
2023/04/25 05:00:36;;;;;;;10.67;10.37;;;7.80;99.90;;;;;;5040417;28;20314;-80
2023/04/25 05:03:05;;;;;;;10.60;10.30;;;7.80;99.90;;;;;;5040433;28;20227;-79
2023/04/25 05:05:32;;;;;;;10.60;10.30;;;7.80;99.90;;;;;;5040147;28;20227;-80
2023/04/25 05:08:00;;;;;;;10.30;10.00;;;7.90;99.90;;;;;;5039597;28;20258;-79
2023/04/25 05:10:28;;;;;;;10.67;10.37;;;7.90;99.90;;;;;;5039257;28;20295;-80
2023/04/25 05:12:55;;;;;;;10.53;10.23;;;7.90;99.90;;;;;;5040153;28;20232;-80
2023/04/25 05:15:22;;;;;;;10.60;10.30;;;7.90;99.90;;;;;;5039512;28;20231;-79
2023/04/25 05:17:50;;;;;;;10.73;10.43;;;7.90;99.90;;;;;;5038793;28;20286;-80
2023/04/25 05:20:19;;;;;;;10.80;10.50;;;8.00;99.90;;;;;;5021157;28;20247;-80
2023/04/25 05:22:47;;;;;;;10.70;10.40;;;8.00;99.90;;;;;;5058164;28;20273;-79
2023/04/25 05:25:14;;;;;;;10.60;10.30;;;8.00;99.90;;;;;;5058907;28;20234;-80
2023/04/25 05:27:42;;;;;;;10.53;10.23;;;8.10;99.90;;;;;;5058125;28;20238;-80
2023/04/25 05:30:10;;;;;;;10.80;10.50;;;8.10;99.90;;;;;;5060724;28;20233;-80
2023/04/25 05:32:38;;;;;;;10.77;10.47;;;8.10;99.90;;;;;;5062266;28;20219;-79
2023/04/25 05:35:08;;;;;;;10.70;10.40;;;8.10;99.90;;;;;;5060553;28;20316;-80
2023/04/25 05:37:37;;;;;;;10.60;10.30;;;8.10;99.90;;;;;;5061637;28;20269;-79
2023/04/25 05:40:07;;;;;;;10.43;10.13;;;8.10;99.90;;;;;;5061707;28;20239;-79
2023/04/25 05:42:34;;;;;;;10.63;10.33;;;8.20;99.90;;;;;;5062641;28;20218;-80
2023/04/25 05:45:02;;;;;;;10.90;10.60;;;8.20;99.90;;;;;;5063672;28;20305;-80
2023/04/25 05:47:29;;;;;;;10.50;10.20;;;8.20;99.90;;;;;;5062182;28;20270;-80
2023/04/25 05:49:57;;;;;;;10.73;10.43;;;8.20;99.90;;;;;;5061465;28;20282;-80
2023/04/25 05:52:24;;;;;;;10.53;10.23;;;8.10;99.90;;;;;;5061920;28;20229;-80
2023/04/25 05:54:53;;;;;;;10.30;10.00;;;8.10;99.90;;;;;;5060924;28;20246;-80
2023/04/25 05:57:23;;;;;;;10.40;10.10;;;8.10;99.90;;;;;;5048304;28;20240;-79
2023/04/25 05:59:51;;;;;;;10.60;10.30;;;8.10;99.90;;;;;;5041316;28;20228;-80
2023/04/25 06:02:18;;;;;;;10.30;10.00;;;8.10;99.90;;;;;;5041974;28;20223;-79
2023/04/25 06:04:46;;;;;;;10.20;9.90;;;8.20;99.90;;;;;;5049315;28;20231;-80
2023/04/25 06:07:14;;;;;;;10.10;9.80;;;8.20;99.90;;;;;;5048169;28;20250;-81
2023/04/25 06:09:41;;;;;;;10.37;10.07;;;8.30;99.90;;;;;;5037258;28;20234;-82
2023/04/25 06:12:10;;;;;;;10.10;9.80;;;8.30;99.90;;;;;;5037714;28;20227;-82
2023/04/25 06:14:38;;;;;;;10.40;10.10;;;8.30;99.90;;;;;;5065864;28;20241;-81
2023/04/25 06:17:08;;;;;;;10.20;9.90;;;8.20;99.90;;;;;;5065469;28;20249;-81
2023/04/25 06:19:36;;;;;;;10.07;9.77;;;8.20;99.90;;;;;;5064802;28;20231;-81
2023/04/25 06:22:04;;;;;;;10.30;10.00;;;8.10;99.90;;;;;;5051223;28;20283;-81
2023/04/25 06:24:32;;;;;;;10.10;9.80;;;8.00;99.90;;;;;;5047673;28;20216;-81
2023/04/25 06:26:59;;;;;;;10.40;10.10;;;7.90;99.90;;;;;;5057733;28;20215;-80
2023/04/25 06:29:28;;;;;;;10.23;9.93;;;7.80;99.90;;;;;;5063901;28;20350;-81
2023/04/25 06:31:56;;;;;;;10.40;10.10;;;7.80;99.90;;;;;;5054359;28;20224;-81
2023/04/25 06:34:24;;;;;;;10.30;10.00;;;7.80;99.90;;;;;;5045240;28;20236;-80
2023/04/25 06:36:52;;;;;;;10.53;10.23;;;7.80;99.90;;;;;;5048268;28;20230;-80
2023/04/25 06:39:19;;;;;;;10.60;10.30;;;7.60;99.90;;;;;;5055340;28;20254;-82
2023/04/25 06:41:47;;;;;;;10.07;9.77;;;7.60;99.90;;;;;;5043135;28;20246;-80
2023/04/25 06:44:15;;;;;;;10.10;9.80;;;7.50;99.90;;;;;;5050201;28;20258;-81
2023/04/25 06:46:44;;;;;;;9.70;9.40;;;7.60;99.90;;;;;;5053926;28;20236;-80
2023/04/25 06:49:11;;;;;;;9.70;9.40;;;7.50;99.90;;;;;;5068034;28;20234;-80
2023/04/25 06:51:40;;;;;;;9.70;9.40;;;7.50;99.90;;;;;;5065726;28;20233;-81
2023/04/25 06:54:07;;;;;;;9.70;9.40;;;7.60;99.90;;;;;;5050444;28;20250;-80
2023/04/25 06:56:35;;;;;;;9.80;9.50;;;7.60;99.90;;;;;;5040398;28;20224;-80
2023/04/25 06:59:02;;;;;;;10.00;9.70;;;7.70;99.90;;;;;;5044548;28;20332;-80
2023/04/25 07:01:30;;;;;;;9.70;9.40;;;7.80;99.90;;;;;;5042739;28;20224;-80
2023/04/25 07:03:59;;;;;;;9.73;9.43;;;7.90;99.90;;;;;;5038332;28;20238;-80
2023/04/25 07:06:27;;;;;;;9.97;9.67;;;7.90;99.90;;;;;;5053178;28;20231;-80
2023/04/25 07:08:55;;;;;;;10.10;9.80;;;8.00;99.90;;;;;;5052949;28;20238;-80
2023/04/25 07:11:23;;;;;;;9.90;9.60;;;8.00;99.90;;;;;;5046123;28;20223;-80
2023/04/25 07:13:51;;;;;;;10.20;9.90;;;8.10;99.90;;;;;;5052631;28;20235;-80
2023/04/25 07:16:18;;;;;;;10.43;10.13;;;7.80;99.90;;;;;;5043754;28;20251;-83
2023/04/25 07:18:46;;;;;;;10.43;10.13;;;7.80;99.90;;;;;;5057262;28;20231;-79
2023/04/25 07:21:15;;;;;;;10.40;10.10;;;7.60;99.90;;;;;;5060221;28;20319;-80
2023/04/25 07:23:42;;;;;;;10.37;10.07;;;7.60;99.90;;;;;;5056654;28;20295;-80
2023/04/25 07:26:10;;;;;;;10.27;9.97;;;7.40;99.90;;;;;;5059449;28;20295;-82
2023/04/25 07:28:37;;;;;;;10.27;9.97;;;7.20;99.90;;;;;;5060632;28;20254;-80
2023/04/25 07:31:05;;;;;;;10.20;9.90;;;7.10;99.90;;;;;;5051441;28;20223;-80
2023/04/25 07:33:33;;;;;;;10.80;10.50;;;7.00;99.90;;;;;;5058448;28;20325;-83
2023/04/25 07:36:00;;;;;;;10.50;10.20;;;7.00;99.90;;;;;;5047389;28;20239;-81
2023/04/25 07:38:29;;;;;;;10.53;10.23;;;7.10;99.90;;;;;;5048375;28;20350;-80
2023/04/25 07:40:57;;;;;;;10.53;10.23;;;7.10;99.90;;;;;;5054215;28;20310;-82
2023/04/25 07:43:24;;;;;;;10.43;10.13;;;7.10;99.90;;;;;;5051731;28;20227;-82
2023/04/25 07:45:52;;;;;;;10.27;9.97;;;7.10;99.90;;;;;;5042555;28;20310;-80
2023/04/25 07:48:19;;;;;;;10.80;10.50;;;7.20;99.90;;;;;;5042144;28;20325;-80
2023/04/25 07:50:47;;;;;;;10.67;10.37;;;7.20;99.90;;;;;;5060969;28;20310;-80
2023/04/25 07:53:14;;;;;;;10.73;10.43;;;7.30;99.90;;;;;;5060822;28;20329;-80
2023/04/25 07:55:43;;;;;;;10.60;10.30;;;7.30;99.90;;;;;;5063288;28;20314;-79
2023/04/25 07:58:12;;;;;;;10.70;10.40;;;7.20;99.90;;;;;;5064429;28;20227;-81
2023/04/25 08:00:41;;;;;;;10.70;10.40;;;7.10;99.90;;;;;;5058389;28;20245;-79
2023/04/25 08:03:10;;;;;;;10.80;10.50;;;7.00;99.90;;;;;;5043224;28;20239;-81
2023/04/25 08:05:37;;;;;;;10.33;10.03;;;7.00;99.90;;;;;;5050384;28;20262;-82
2023/04/25 08:08:06;;;;;;;10.70;10.40;;;7.00;99.90;;;;;;5021530;28;20327;-81
2023/04/25 08:10:35;;;;;;;10.60;10.30;;;7.10;99.90;;;;;;5023064;28;20232;-82
2023/04/25 08:13:04;;;;;;;10.80;10.50;;;7.20;99.90;;;;;;5028512;28;20235;-82
2023/04/25 08:15:32;;;;;;;10.60;10.30;;;7.30;99.90;;;;;;5043005;28;20238;-80
2023/04/25 08:17:59;;;;;;;10.60;10.30;;;7.50;99.90;;;;;;5043373;28;20322;-80
2023/04/25 08:20:27;;;;;;;10.40;10.10;;;7.70;99.90;;;;;;5044729;28;20219;-80
2023/04/25 08:22:54;;;;;;;10.40;10.10;;;7.80;99.90;;;;;;5044147;28;20224;-80
2023/04/25 08:25:22;;;;;;;10.10;9.80;;;7.90;99.90;;;;;;5044719;28;20734;-80
2023/04/25 08:27:49;;;;;;;10.03;9.73;;;8.10;99.90;;;;;;5044147;28;20318;-80
2023/04/25 08:30:19;;;;;;;10.37;10.07;;;8.20;99.90;;;;;;5044414;28;20223;-80
2023/04/25 08:32:46;;;;;;;10.07;9.77;;;8.40;99.90;;;;;;5043142;28;20227;-80
2023/04/25 08:35:13;;;;;;;10.47;10.17;;;8.40;99.90;;;;;;5045589;28;20230;-81
2023/04/25 08:37:41;;;;;;;10.27;9.97;;;8.60;99.90;;;;;;5044756;28;20290;-81
2023/04/25 08:40:16;;;;;;;10.00;9.70;;;8.80;99.90;;;;;;5053350;28;20219;-80
2023/04/25 08:42:44;;;;;;;10.30;10.00;;;8.90;99.90;;;;;;5054920;28;20361;-81
2023/04/25 08:45:12;;;;;;;10.40;10.10;;;9.10;99.90;;;;;;5048477;28;20231;-80
2023/04/25 08:47:41;;;;;;;10.50;10.20;;;9.30;99.90;;;;;;5045920;28;20243;-82
2023/04/25 08:50:09;;;;;;;10.27;9.97;;;9.30;99.90;;;;;;5045929;28;20212;-84
2023/04/25 08:52:44;;;;;;;10.23;9.93;;;9.30;99.90;;;;;;5046561;28;20231;-80
2023/04/25 08:55:14;;;;;;;10.00;9.70;;;9.30;99.90;;;;;;5045263;28;20262;-81
2023/04/25 08:57:43;;;;;;;9.90;9.60;;;9.50;99.90;;;;;;5043735;28;20250;-80
2023/04/25 09:00:12;;;;;;;10.17;9.87;;;9.40;99.90;;;;;;5043048;28;20219;-80
2023/04/25 09:02:43;;;;;;;10.40;10.10;;;9.30;99.90;;;;;;5026009;28;20236;-82
2023/04/25 09:05:13;;;;;;;10.50;10.20;;;9.00;99.90;;;;;;5023859;28;20298;-81
2023/04/25 09:07:41;;;;;;;10.53;10.23;;;8.70;99.90;;;;;;5023056;28;20263;-82
2023/04/25 09:10:11;;;;;;;10.83;10.53;;;8.50;99.90;;;;;;5025205;28;20239;-82
2023/04/25 09:12:44;;;;;;;10.30;10.00;;;8.40;99.90;;;;;;5032878;28;20318;-81
2023/04/25 09:15:13;;;;;;;10.20;9.90;;;8.30;99.90;;;;;;5043812;28;20238;-82
2023/04/25 09:17:44;;;;;;;10.10;9.80;;;8.40;99.90;;;;;;5041332;28;20272;-81
2023/04/25 09:20:14;;;;;;;10.30;10.00;;;8.60;99.90;;;;;;5041593;28;20227;-82
2023/04/25 09:22:42;;;;;;;10.17;9.87;;;8.80;99.90;;;;;;5040741;28;20262;-81
2023/04/25 09:25:13;;;;;;;10.00;9.70;;;9.00;99.90;;;;;;5042113;28;20231;-81
2023/04/25 09:27:52;;;;;;;10.17;9.87;;;9.70;99.90;;;;;;5048458;28;20241;-81
2023/04/25 09:30:19;;;;;;;10.23;9.93;;;10.30;99.90;;;;;;5046156;28;20219;-81
2023/04/25 09:32:48;;;;;;;10.20;9.90;;;10.70;99.90;;;;;;5044872;28;20301;-81
2023/04/25 09:35:26;;;;;;;10.40;10.10;;;10.90;99.90;;;;;;5049685;28;20235;-81
2023/04/25 09:37:53;;;;;;;10.33;10.03;;;11.00;99.90;;;;;;5044048;28;20242;-81
2023/04/25 09:40:21;;;;;;;10.37;10.07;;;11.10;99.90;;;;;;5043769;28;20235;-81
2023/04/25 09:42:49;;;;;;;10.17;9.87;;;11.20;99.90;;;;;;5042905;28;20242;-81
2023/04/25 09:45:16;;;;;;;9.97;9.67;;;11.20;99.90;;;;;;5043806;28;20227;-82
2023/04/25 09:47:44;;;;;;;10.00;9.70;;;11.10;99.90;;;;;;5041354;28;20262;-82
2023/04/25 09:50:19;;;;;;;10.27;9.97;;;11.10;99.90;;;;;;5041288;28;20227;-82
2023/04/25 09:52:47;;;;;;;10.20;9.90;;;11.00;99.90;;;;;;5041910;28;20238;-83
2023/04/25 09:55:15;;;;;;;10.20;9.90;;;11.10;99.90;;;;;;5043807;28;20318;-83
2023/04/25 09:57:44;;;;;;;10.40;10.10;;;11.00;99.90;;;;;;5043735;28;20235;-83
2023/04/25 10:00:13;;;;;;;10.33;10.03;;;11.20;99.90;;;;;;5043286;28;20252;-82
2023/04/25 10:02:44;;;;;;;10.10;9.80;;;11.60;99.90;;;;;;5043196;28;20234;-82
2023/04/25 10:05:12;;;;;;;10.50;10.20;;;11.80;99.90;;;;;;5044120;28;20318;-82
2023/04/25 10:07:42;;;;;;;10.27;9.97;;;11.60;99.90;;;;;;5042302;28;20287;-84
2023/04/25 10:10:11;;;;;;;10.53;10.23;;;11.40;99.90;;;;;;5041989;28;20250;-84
2023/04/25 10:12:40;;;;;;;10.43;10.13;;;11.20;99.90;;;;;;5041959;28;20303;-84
2023/04/25 10:15:10;;;;;;;10.80;10.50;;;11.10;99.90;;;;;;5042774;28;20228;-84
2023/04/25 10:17:37;;;;;;;10.70;10.40;;;11.10;99.90;;;;;;5045411;28;20823;-84
2023/04/25 10:20:10;;;;;;;10.37;10.07;;;11.20;99.90;;;;;;5045859;28;20365;-83
2023/04/25 10:22:43;;;;;;;10.90;10.60;;;11.50;99.90;;;;;;5056466;28;20234;-84
2023/04/25 10:25:16;;;;;;;10.40;10.10;;;12.00;99.90;;;;;;5064981;28;20267;-84
2023/04/25 10:27:44;;;;;;;10.30;10.00;;;12.70;99.90;;;;;;5066163;28;20270;-85
2023/04/25 10:30:15;;;;;;;10.13;9.83;;;12.90;99.90;;;;;;5065083;28;20223;-83
2023/04/25 10:32:44;;;;;;;10.20;9.90;;;12.50;99.90;;;;;;5066027;28;20301;-83
2023/04/25 10:35:15;;;;;;;10.10;9.80;;;12.20;99.90;;;;;;5065366;28;20302;-84
2023/04/25 10:38:06;;;;;;;10.57;10.27;;;11.70;99.90;;;;;;5054909;28;20258;-83
2023/04/25 10:40:34;;;;;;;10.70;10.40;;;11.40;99.90;;;;;;5044408;28;20228;-84
2023/04/25 10:43:37;;;;;;;10.30;10.00;;;11.30;99.90;;;;;;5044794;28;20289;-83
2023/04/25 10:46:18;;;;;;;10.57;10.27;;;11.60;99.90;;;;;;5044117;28;20232;-83
2023/04/25 10:48:50;;;;;;;10.70;10.40;;;12.30;99.90;;;;;;5042029;28;20227;-84
2023/04/25 10:51:23;;;;;;;10.73;10.43;;;13.00;99.90;;;;;;5042092;28;20223;-84
2023/04/25 10:54:03;;;;;;;11.00;10.70;;;13.50;99.90;;;;;;5043744;28;20269;-84
2023/04/25 10:56:33;;;;;;;10.80;10.50;;;13.30;99.90;;;;;;5044818;28;20298;-84
2023/04/25 10:59:09;;;;;;;10.70;10.40;;;12.90;99.90;;;;;;5055966;28;20219;-82
2023/04/25 11:01:40;;;;;;;10.93;10.63;;;12.60;99.90;;;;;;5049375;28;20219;-82
2023/04/25 11:04:20;;;;;;;10.90;10.60;;;12.10;99.90;;;;;;5043878;28;20320;-84
2023/04/25 11:07:12;;;;;;;10.33;10.03;;;11.80;99.90;;;;;;5045035;28;20254;-83
2023/04/25 11:09:42;;;;;;;10.77;10.47;;;12.00;99.90;;;;;;5041346;28;20239;-83
2023/04/25 11:12:11;;;;;;;10.40;10.10;;;12.60;99.90;;;;;;5043457;28;20219;-84
2023/04/25 11:14:48;;;;;;;10.47;10.17;;;13.20;99.90;;;;;;5041030;28;20237;-84
2023/04/25 11:17:15;;;;;;;10.40;10.10;;;13.00;99.90;;;;;;5042538;28;20234;-82
2023/04/25 11:19:43;;;;;;;10.23;9.93;;;12.80;99.90;;;;;;5045236;28;20223;-84
2023/04/25 11:22:12;;;;;;;10.10;9.80;;;12.20;99.90;;;;;;5044197;28;20216;-84
2023/04/25 11:24:42;;;;;;;10.20;9.90;;;11.70;99.90;;;;;;5042918;28;20238;-84
2023/04/25 11:27:10;;;;;;;10.27;9.97;;;11.60;99.90;;;;;;5027205;28;20232;-83
2023/04/25 11:29:37;;;;;;;10.40;10.10;;;11.60;99.90;;;;;;5023318;28;20243;-84
2023/04/25 11:32:06;;;;;;;10.70;10.40;;;11.40;99.90;;;;;;5022249;28;20226;-86
2023/04/25 11:34:34;;;;;;;10.10;9.80;;;11.30;99.90;;;;;;5024122;28;20239;-83
2023/04/25 11:37:03;;;;;;;10.07;9.77;;;11.40;99.90;;;;;;5023558;28;20260;-86
2023/04/25 11:39:32;;;;;;;10.30;10.00;;;11.40;99.90;;;;;;5023084;28;20334;-84
2023/04/25 11:42:02;;;;;;;10.10;9.80;;;11.50;99.90;;;;;;5022763;28;20235;-84
2023/04/25 11:44:30;;;;;;;10.20;9.90;;;11.40;99.90;;;;;;5038627;28;20223;-85
2023/04/25 11:46:57;;;;;;;10.30;10.00;;;11.50;99.90;;;;;;5049528;28;20262;-87
2023/04/25 11:49:25;;;;;;;10.53;10.23;;;12.00;99.90;;;;;;5040717;28;20270;-86
2023/04/25 11:51:52;;;;;;;10.60;10.30;;;12.80;99.90;;;;;;5040135;28;20253;-85
2023/04/25 11:54:20;;;;;;;10.70;10.40;;;13.30;99.90;;;;;;5040090;28;20231;-86
2023/04/25 11:56:48;;;;;;;10.90;10.60;;;13.60;99.90;;;;;;5034914;28;20242;-83
2023/04/25 11:59:17;;;;;;;10.70;10.40;;;13.80;99.90;;;;;;5022486;28;20244;-81
2023/04/25 12:01:50;;;;;;;10.73;10.43;;;13.60;99.90;;;;;;5023375;28;20273;-81
2023/04/25 12:04:20;;;;;;;11.30;11.00;;;14.10;99.90;;;;;;5024738;28;20235;-82
2023/04/25 12:06:50;;;;;;;10.30;10.00;;;14.20;99.90;;;;;;5026879;28;20227;-82
2023/04/25 12:09:21;;;;;;;10.40;10.10;;;14.20;99.90;;;;;;5025259;28;20299;-82
2023/04/25 12:11:49;;;;;;;10.20;9.90;;;14.00;99.90;;;;;;5026471;28;20220;-82
2023/04/25 12:14:26;;;;;;;10.47;10.17;;;14.10;99.90;;;;;;5038628;28;20224;-82
2023/04/25 12:16:57;;;;;;;10.07;9.77;;;14.30;99.90;;;;;;5031563;28;20235;-82
2023/04/25 12:19:25;;;;;;;10.50;10.20;;;14.30;99.90;;;;;;5022578;28;20224;-83
2023/04/25 12:21:53;;;;;;;10.03;9.73;;;14.30;99.90;;;;;;5023863;28;20252;-82
2023/04/25 12:24:25;;;;;;;10.17;9.87;;;13.70;99.90;;;;;;5023216;28;20332;-82
2023/04/25 12:27:00;;;;;;;9.70;9.40;;;13.50;99.90;;;;;;5023177;28;20236;-82
2023/04/25 12:29:31;;;;;;;10.40;10.10;;;13.00;99.90;;;;;;5022236;28;20331;-82
2023/04/25 12:31:59;;;;;;;10.30;10.00;;;13.20;99.90;;;;;;5024076;28;20228;-81
2023/04/25 12:34:27;;;;;;;10.27;9.97;;;13.00;99.90;;;;;;5023040;28;20243;-82
2023/04/25 12:36:55;;;;;;;10.03;9.73;;;12.90;99.90;;;;;;5022946;28;20270;-82
2023/04/25 12:39:24;;;;;;;10.00;9.70;;;12.80;99.90;;;;;;5020937;28;20330;-82
2023/04/25 12:41:53;;;;;;;10.17;9.87;;;12.70;99.90;;;;;;5023369;28;20251;-82
2023/04/25 12:44:21;;;;;;;10.00;9.70;;;12.50;99.90;;;;;;5023398;28;20239;-82
2023/04/25 12:46:50;;;;;;;9.67;9.37;;;12.50;99.90;;;;;;5024133;28;20291;-82
2023/04/25 12:49:18;;;;;;;10.10;9.80;;;12.30;99.90;;;;;;5022977;28;20248;-82
2023/04/25 12:51:46;;;;;;;9.57;9.27;;;12.10;99.90;;;;;;5023704;28;20650;-82
2023/04/25 12:54:14;;;;;;;9.77;9.47;;;12.10;99.90;;;;;;5023514;28;20235;-83
2023/04/25 12:56:42;;;;;;;9.67;9.37;;;11.90;99.90;;;;;;5024490;28;20235;-81
2023/04/25 12:59:10;;;;;;;9.57;9.27;;;11.80;99.90;;;;;;5023400;28;20259;-85
2023/04/25 13:01:38;;;;;;;9.30;9.00;;;11.80;99.90;;;;;;5026559;28;20220;-82
2023/04/25 13:04:07;;;;;;;9.80;9.50;;;11.90;99.90;;;;;;5027937;28;20295;-81
2023/04/25 13:06:34;;;;;;;9.70;9.40;;;11.90;99.90;;;;;;5030813;28;20354;-81
2023/04/25 13:09:03;;;;;;;10.03;9.73;;;12.10;99.90;;;;;;5028286;28;20246;-81
2023/04/25 13:11:31;;;;;;;9.93;9.63;;;12.30;99.90;;;;;;5028541;28;20217;-81
2023/04/25 13:13:58;;;;;;;9.70;9.40;;;12.20;99.90;;;;;;5029336;28;20247;-80
2023/04/25 13:16:26;;;;;;;9.77;9.47;;;12.30;99.90;;;;;;5035883;28;20248;-81
2023/04/25 13:18:55;;;;;;;9.70;9.40;;;12.10;99.90;;;;;;5030865;28;21202;-81
2023/04/25 13:21:25;;;;;;;9.90;9.60;;;12.00;99.90;;;;;;5035126;28;20292;-81
2023/04/25 13:23:53;;;;;;;9.60;9.30;;;11.80;99.90;;;;;;5029681;28;20239;-82
2023/04/25 13:26:20;;;;;;;9.83;9.53;;;11.80;99.90;;;;;;5034699;28;20259;-80
2023/04/25 13:28:48;;;;;;;9.87;9.57;;;11.80;99.90;;;;;;5042199;28;20265;-81
2023/04/25 13:31:15;;;;;;;9.67;9.37;;;11.60;99.90;;;;;;5053012;28;20238;-81
2023/04/25 13:33:43;;;;;;;9.47;9.17;;;11.80;99.90;;;;;;5059204;28;20235;-80
2023/04/25 13:36:13;;;;;;;9.30;9.00;;;11.80;99.90;;;;;;5042196;28;20224;-82
2023/04/25 13:38:47;;;;;;;9.37;9.07;;;11.90;99.90;;;;;;5034289;28;20240;-82
2023/04/25 13:41:18;;;;;;;9.43;9.13;;;11.90;99.90;;;;;;5022298;28;20228;-81
2023/04/25 13:43:48;;;;;;;9.60;9.30;;;11.90;99.90;;;;;;5021673;28;20275;-81
2023/04/25 13:46:16;;;;;;;9.40;9.10;;;11.70;99.90;;;;;;5019960;28;20291;-82
2023/04/25 13:48:46;;;;;;;9.40;9.10;;;11.60;99.90;;;;;;5034525;28;20239;-83
2023/04/25 13:51:17;;;;;;;9.80;9.50;;;11.60;99.90;;;;;;5045041;28;20270;-84
2023/04/25 13:53:46;;;;;;;9.40;9.10;;;11.40;99.90;;;;;;5041963;28;20299;-83
2023/04/25 13:56:14;;;;;;;9.30;9.00;;;11.20;99.90;;;;;;5049419;28;20230;-84
2023/04/25 13:58:42;;;;;;;9.07;8.83;;;11.10;99.90;;;;;;5051937;28;20326;-84
2023/04/25 14:01:10;;;;;;;9.30;9.00;;;11.10;99.90;;;;;;5037903;28;20311;-84
2023/04/25 14:03:37;;;;;;;9.43;9.13;;;11.10;99.90;;;;;;5047289;28;20294;-81
2023/04/25 14:06:05;;;;;;;9.37;9.07;;;11.10;99.90;;;;;;5070608;28;20251;-81
2023/04/25 14:08:33;;;;;;;9.67;9.37;;;11.30;99.90;;;;;;5059072;28;20245;-84
2023/04/25 14:11:02;;;;;;;9.30;9.00;;;11.50;99.90;;;;;;5061598;28;20235;-85
2023/04/25 14:13:30;;;;;;;9.27;8.97;;;11.60;99.90;;;;;;5054404;28;20235;-84
2023/04/25 14:15:57;;;;;;;9.40;9.10;;;11.50;99.90;;;;;;5065624;28;20258;-85
2023/04/25 14:18:25;;;;;;;9.50;9.20;;;11.30;99.90;;;;;;5064837;28;20234;-84
2023/04/25 14:20:52;;;;;;;9.53;9.23;;;11.30;99.90;;;;;;5066317;28;20231;-84
2023/04/25 14:23:20;;;;;;;9.70;9.40;;;11.30;99.90;;;;;;5064484;28;20238;-83
2023/04/25 14:25:48;;;;;;;9.40;9.10;;;11.30;99.90;;;;;;5065755;28;20230;-84
2023/04/25 14:28:17;;;;;;;9.47;9.17;;;11.30;99.90;;;;;;5065159;28;20245;-84
2023/04/25 14:30:44;;;;;;;9.30;9.00;;;11.10;99.90;;;;;;5066774;28;20230;-84
2023/04/25 14:33:13;;;;;;;8.93;8.73;;;10.90;99.90;;;;;;5068041;28;20321;-83
2023/04/25 14:35:41;;;;;;;9.20;8.90;;;10.70;99.90;;;;;;5055103;28;20239;-85
2023/04/25 14:38:09;;;;;;;9.07;8.87;;;10.70;99.90;;;;;;5038526;28;20243;-85
2023/04/25 14:40:37;;;;;;;8.70;8.50;;;10.50;99.90;;;;;;5044664;28;20230;-86
2023/04/25 14:43:05;;;;;;;8.50;8.30;;;10.40;99.90;;;;;;5054858;28;20234;-83
2023/04/25 14:45:34;;;;;;;8.50;8.30;;;10.30;99.90;;;;;;5050809;28;20231;-83
2023/04/25 14:48:02;;;;;;;8.70;8.50;;;10.20;99.90;;;;;;5051334;28;20600;-81
2023/04/25 14:50:29;;;;;;;8.77;8.57;;;10.30;99.90;;;;;;5049856;28;20263;-83
2023/04/25 14:53:00;;;;;;;8.00;7.80;;;10.50;99.90;;;;;;5046941;28;20235;-85
2023/04/25 14:55:27;;;;;;;8.27;8.07;;;10.40;99.90;;;;;;5055671;28;20226;-84
2023/04/25 14:57:56;;;;;;;7.87;7.67;;;10.50;99.90;;;;;;5066701;28;20234;-83
2023/04/25 15:00:25;;;;;;;8.07;7.87;;;10.60;99.90;;;;;;5066747;28;20223;-83
2023/04/25 15:02:54;;;;;;;8.27;8.07;;;10.50;99.90;;;;;;5060169;28;20263;-83
2023/04/25 15:05:21;;;;;;;8.07;7.87;;;10.50;99.90;;;;;;5060281;28;20270;-82
2023/04/25 15:07:49;;;;;;;8.10;7.90;;;10.50;99.90;;;;;;5062446;28;20239;-82
2023/04/25 15:10:18;;;;;;;8.10;7.90;;;10.40;99.90;;;;;;5055286;28;20290;-82
2023/04/25 15:12:47;;;;;;;8.20;8.00;;;10.40;99.90;;;;;;5046792;28;20231;-81
2023/04/25 15:15:14;;;;;;;7.90;7.70;;;10.50;99.90;;;;;;5045854;28;20227;-82
2023/04/25 15:17:43;;;;;;;8.40;8.20;;;10.60;99.90;;;;;;5045745;28;20277;-82
2023/04/25 15:20:14;;;;;;;8.17;7.97;;;10.60;99.90;;;;;;5046352;28;20238;-82
2023/04/25 15:22:44;;;;;;;8.40;8.20;;;10.50;99.90;;;;;;5046398;28;20584;-82
2023/04/25 15:25:12;;;;;;;8.40;8.20;;;10.50;99.90;;;;;;5045057;28;20289;-82
2023/04/25 15:27:43;;;;;;;8.53;8.33;;;10.50;99.90;;;;;;5045273;28;20303;-82
2023/04/25 15:30:14;;;;;;;8.60;8.40;;;10.40;99.90;;;;;;5047968;28;20247;-81
2023/04/25 15:32:42;;;;;;;8.90;8.70;;;10.30;99.90;;;;;;5055012;28;20367;-82
2023/04/25 15:35:12;;;;;;;8.80;8.60;;;10.00;99.90;;;;;;5049535;28;20239;-82
2023/04/25 15:37:40;;;;;;;8.70;8.50;;;9.90;99.90;;;;;;5047760;28;20263;-82
2023/04/25 15:40:11;;;;;;;8.60;8.40;;;10.00;99.90;;;;;;5046018;28;20232;-82
2023/04/25 15:42:39;;;;;;;8.80;8.60;;;10.10;99.90;;;;;;5046479;28;20269;-82
2023/04/25 15:45:09;;;;;;;8.63;8.43;;;10.10;99.90;;;;;;5047164;28;20243;-81
2023/04/25 15:47:38;;;;;;;8.60;8.40;;;10.20;99.90;;;;;;5046086;28;20246;-82
2023/04/25 15:50:09;;;;;;;8.87;8.67;;;10.30;99.90;;;;;;5045130;28;20270;-82
2023/04/25 15:52:39;;;;;;;8.80;8.60;;;10.30;99.90;;;;;;5046807;28;20296;-81
2023/04/25 15:55:08;;;;;;;8.60;8.40;;;10.30;99.90;;;;;;5049511;28;20231;-81
2023/04/25 15:57:36;;;;;;;8.70;8.50;;;10.30;99.90;;;;;;5046690;28;20235;-82
2023/04/25 16:00:09;;;;;;;9.17;8.90;;;10.30;99.90;;;;;;5053304;28;20273;-81
2023/04/25 16:02:37;;;;;;;8.70;8.50;;;10.30;99.90;;;;;;5047313;28;20262;-81
2023/04/25 16:05:05;;;;;;;8.90;8.70;;;10.30;99.90;;;;;;5046324;28;20266;-81
2023/04/25 16:07:33;;;;;;;8.50;8.30;;;10.30;99.90;;;;;;5046800;28;20246;-81
2023/04/25 16:10:02;;;;;;;8.70;8.50;;;10.40;99.90;;;;;;5045173;28;20231;-81
2023/04/25 16:12:30;;;;;;;8.50;8.30;;;10.40;99.90;;;;;;5044117;28;20240;-80
2023/04/25 16:14:58;;;;;;;8.67;8.47;;;10.40;99.90;;;;;;5042867;28;20235;-81
2023/04/25 16:17:28;;;;;;;8.70;8.50;;;10.50;99.90;;;;;;5044467;28;20251;-81
2023/04/25 16:19:56;;;;;;;8.60;8.40;;;10.60;99.90;;;;;;5043599;28;20237;-81
2023/04/25 16:22:23;;;;;;;8.70;8.50;;;10.60;99.90;;;;;;5043456;28;20392;-81
2023/04/25 16:24:51;;;;;;;8.80;8.60;;;10.50;99.90;;;;;;5045263;28;20273;-82
2023/04/25 16:27:20;;;;;;;9.00;8.80;;;10.50;99.90;;;;;;5043705;28;20342;-82
2023/04/25 16:29:50;;;;;;;8.90;8.70;;;10.50;99.90;;;;;;5041205;28;20248;-82
2023/04/25 16:32:17;;;;;;;8.97;8.77;;;10.40;99.90;;;;;;5040679;28;20238;-82
2023/04/25 16:34:45;;;;;;;8.53;8.33;;;10.40;99.90;;;;;;5041338;28;20308;-82
2023/04/25 16:37:13;;;;;;;8.43;8.23;;;10.30;99.90;;;;;;5041789;28;20235;-82
2023/04/25 16:39:40;;;;;;;8.43;8.23;;;10.20;99.90;;;;;;5041401;28;20354;-82
2023/04/25 16:42:08;;;;;;;8.57;8.37;;;10.20;99.90;;;;;;5040806;28;20323;-82
2023/04/25 16:44:37;;;;;;;8.63;8.43;;;10.30;99.90;;;;;;5039613;28;20318;-82
2023/04/25 16:47:05;;;;;;;8.50;8.30;;;10.30;99.90;;;;;;5036735;28;20263;-83
2023/04/25 16:49:32;;;;;;;8.40;8.20;;;10.30;99.90;;;;;;5042576;28;20234;-81
2023/04/25 16:52:01;;;;;;;8.80;8.60;;;10.40;99.90;;;;;;5044632;28;20293;-81
2023/04/25 16:54:28;;;;;;;8.67;8.47;;;10.40;99.90;;;;;;5038871;28;20235;-81
2023/04/25 16:56:57;;;;;;;8.63;8.43;;;10.30;99.90;;;;;;5046947;28;20314;-82
2023/04/25 16:59:25;;;;;;;8.70;8.50;;;10.30;99.90;;;;;;5039560;28;20223;-83
2023/04/25 17:01:54;;;;;;;8.80;8.60;;;10.20;99.90;;;;;;5043667;28;20286;-86
2023/04/25 17:04:22;;;;;;;8.83;8.63;;;10.20;99.90;;;;;;5040957;28;20228;-84
2023/04/25 17:06:50;;;;;;;8.80;8.60;;;10.20;99.90;;;;;;5044724;28;20277;-82
2023/04/25 17:09:18;;;;;;;8.60;8.40;;;10.10;99.90;;;;;;5039755;28;20258;-84
2023/04/25 17:11:45;;;;;;;9.00;8.80;;;10.10;99.90;;;;;;5038620;28;20322;-81
2023/04/25 17:14:13;;;;;;;8.57;8.37;;;10.00;99.90;;;;;;5037345;28;20266;-80
2023/04/25 17:16:40;;;;;;;8.60;8.40;;;10.00;99.90;;;;;;5038409;28;20277;-81